createdAt,value
2017-06-26T00:02:10.960Z,77.90
2017-06-26T00:04:39.249Z,78.30
2017-06-26T00:07:07.512Z,77.70
2017-06-26T00:09:35.038Z,77.70
2017-06-26T00:12:03.301Z,78.10
2017-06-26T00:14:31.555Z,77.60
2017-06-26T00:16:59.836Z,77.50
2017-06-26T00:19:27.340Z,77.50
2017-06-26T00:21:55.619Z,78.00
2017-06-26T00:24:23.878Z,77.70
2017-06-26T00:26:52.170Z,77.60
2017-06-26T00:29:20.431Z,77.20
2017-06-26T00:31:48.695Z,78.10
2017-06-26T00:34:16.984Z,78.80
2017-06-26T00:36:45.231Z,77.00
2017-06-26T00:39:13.499Z,77.50
2017-06-26T00:41:41.753Z,77.30
2017-06-26T00:44:10.038Z,78.40
2017-06-26T00:46:38.287Z,78.10
2017-06-26T00:49:06.559Z,79.10
2017-06-26T00:51:34.814Z,77.30
2017-06-26T00:54:03.103Z,77.70
2017-06-26T00:56:31.360Z,77.10
2017-06-26T00:58:59.612Z,77.70
2017-06-26T01:01:27.920Z,77.10
2017-06-26T01:03:56.189Z,77.90
2017-06-26T01:06:24.450Z,77.70
2017-06-26T01:08:52.746Z,78.00
2017-06-26T01:11:21.008Z,79.90
2017-06-26T01:13:49.301Z,77.80
2017-06-26T01:16:17.581Z,77.60
2017-06-26T01:18:45.889Z,79.10
2017-06-26T01:21:14.157Z,78.30
2017-06-26T01:23:42.431Z,79.20
2017-06-26T01:26:10.727Z,79.70
2017-06-26T01:28:38.988Z,78.60
2017-06-26T01:31:07.279Z,79.10
2017-06-26T01:33:35.540Z,78.40
2017-06-26T01:36:03.841Z,78.10
2017-06-26T01:38:31.388Z,78.00
2017-06-26T01:40:59.654Z,78.00
2017-06-26T01:43:27.920Z,78.80
2017-06-26T01:45:56.214Z,78.30
2017-06-26T01:48:24.507Z,79.90
2017-06-26T01:50:52.774Z,79.30
2017-06-26T01:53:21.078Z,78.90
2017-06-26T01:55:49.336Z,79.90
2017-06-26T01:58:17.602Z,78.30
2017-06-26T02:00:45.902Z,78.80
2017-06-26T02:03:14.198Z,78.50
2017-06-26T02:05:42.485Z,78.20
2017-06-26T02:08:10.748Z,79.80
2017-06-26T02:10:39.037Z,79.40
2017-06-26T02:13:07.305Z,79.80
2017-06-26T02:15:35.597Z,78.70
2017-06-26T02:18:03.861Z,78.20
2017-06-26T02:20:32.161Z,78.10
2017-06-26T02:23:00.416Z,78.80
2017-06-26T02:25:28.680Z,77.60
2017-06-26T02:27:56.968Z,78.90
2017-06-26T02:30:25.235Z,78.40
2017-06-26T02:32:53.549Z,79.20
2017-06-26T02:35:21.810Z,78.90
2017-06-26T02:37:50.083Z,80.10
2017-06-26T02:40:18.388Z,79.50
2017-06-26T02:42:46.656Z,79.30
2017-06-26T02:45:14.969Z,79.90
2017-06-26T02:47:43.238Z,79.70
2017-06-26T02:50:11.548Z,80.00
2017-06-26T02:52:39.814Z,79.70
2017-06-26T02:55:08.077Z,79.10
2017-06-26T02:57:36.370Z,79.70
2017-06-26T03:00:04.677Z,79.50
2017-06-26T03:02:32.942Z,80.30
2017-06-26T03:05:01.233Z,79.90
2017-06-26T03:07:29.520Z,81.50
2017-06-26T03:09:57.782Z,81.50
2017-06-26T03:12:26.072Z,81.60
2017-06-26T03:14:54.357Z,80.30
2017-06-26T03:17:22.652Z,80.80
2017-06-26T03:19:50.942Z,81.00
2017-06-26T03:22:19.213Z,80.10
2017-06-26T03:24:47.500Z,80.90
2017-06-26T03:27:15.810Z,81.60
2017-06-26T03:29:44.077Z,80.80
2017-06-26T03:32:12.346Z,81.80
2017-06-26T03:34:40.633Z,81.10
2017-06-26T03:37:08.893Z,81.50
2017-06-26T03:39:37.193Z,81.80
2017-06-26T03:42:05.496Z,81.80
2017-06-26T03:44:33.766Z,81.10
2017-06-26T03:47:02.033Z,81.40
2017-06-26T03:49:30.341Z,81.90
2017-06-26T03:51:58.600Z,82.30
2017-06-26T03:54:26.933Z,82.50
2017-06-26T03:56:55.198Z,82.80
2017-06-26T03:59:23.463Z,83.00
2017-06-26T04:01:51.761Z,82.00
2017-06-26T04:04:20.028Z,81.90
2017-06-26T04:06:48.330Z,82.70
2017-06-26T04:09:16.596Z,82.30
2017-06-26T04:11:44.891Z,82.40
2017-06-26T04:14:13.154Z,82.30
2017-06-26T04:16:41.457Z,82.80
2017-06-26T04:19:09.728Z,82.70
2017-06-26T04:21:38.018Z,82.70
2017-06-26T04:24:06.328Z,82.70
2017-06-26T04:26:34.596Z,83.40
2017-06-26T04:29:02.900Z,82.70
2017-06-26T04:31:31.160Z,82.50
2017-06-26T04:33:59.426Z,83.00
2017-06-26T04:36:27.724Z,82.30
2017-06-26T04:38:55.988Z,82.00
2017-06-26T04:41:24.276Z,83.20
2017-06-26T04:43:52.542Z,82.60
2017-06-26T04:46:20.829Z,82.00
2017-06-26T04:48:49.120Z,81.90
2017-06-26T04:51:17.385Z,82.50
2017-06-26T04:53:45.681Z,82.90
2017-06-26T04:56:13.948Z,83.50
2017-06-26T04:58:42.242Z,84.00
2017-06-26T05:01:10.510Z,82.50
2017-06-26T05:03:38.815Z,82.90
2017-06-26T05:06:07.101Z,83.30
2017-06-26T05:08:35.373Z,83.80
2017-06-26T05:11:03.681Z,84.20
2017-06-26T05:13:31.956Z,83.90
2017-06-26T05:16:00.262Z,84.00
2017-06-26T05:18:28.562Z,84.10
2017-06-26T05:20:56.888Z,85.90
2017-06-26T05:23:25.156Z,84.70
2017-06-26T05:25:53.427Z,84.60
2017-06-26T05:28:21.748Z,84.60
2017-06-26T05:30:50.017Z,85.10
2017-06-26T05:33:18.283Z,84.50
2017-06-26T05:35:46.592Z,84.60
2017-06-26T05:38:14.857Z,84.60
2017-06-26T05:40:43.119Z,84.10
2017-06-26T05:43:11.426Z,84.10
2017-06-26T05:45:39.701Z,84.30
2017-06-26T05:48:07.992Z,83.50
2017-06-26T05:50:36.260Z,83.70
2017-06-26T05:53:04.593Z,83.30
2017-06-26T05:55:32.872Z,83.90
2017-06-26T05:58:01.151Z,84.30
2017-06-26T06:00:29.501Z,84.40
2017-06-26T06:02:57.773Z,84.20
2017-06-26T06:05:26.053Z,84.30
2017-06-26T06:07:54.394Z,84.80
2017-06-26T06:10:22.664Z,84.50
2017-06-26T06:12:50.985Z,85.40
2017-06-26T06:15:19.266Z,84.40
2017-06-26T06:17:47.543Z,85.00
2017-06-26T06:20:15.842Z,84.70
2017-06-26T06:22:44.113Z,84.50
2017-06-26T06:25:12.430Z,85.00
2017-06-26T06:27:40.707Z,84.20
2017-06-26T06:30:09.016Z,84.00
2017-06-26T06:32:37.294Z,84.20
2017-06-26T06:35:05.600Z,84.50
2017-06-26T06:37:33.876Z,84.70
2017-06-26T06:40:02.229Z,85.00
2017-06-26T06:42:30.518Z,84.60
2017-06-26T06:44:58.805Z,83.90
2017-06-26T06:47:27.125Z,84.50
2017-06-26T06:49:55.451Z,84.70
2017-06-26T06:52:23.726Z,84.20
2017-06-26T06:54:52.027Z,85.20
2017-06-26T06:57:20.357Z,83.70
2017-06-26T06:59:48.638Z,83.80
2017-06-26T07:02:16.932Z,82.50
2017-06-26T07:04:45.234Z,82.70
2017-06-26T07:07:13.505Z,83.10
2017-06-26T07:09:41.055Z,83.10
2017-06-26T07:12:09.333Z,82.80
2017-06-26T07:14:37.605Z,80.60
2017-06-26T07:17:05.915Z,82.00
2017-06-26T07:19:34.224Z,79.90
2017-06-26T07:22:02.494Z,79.80
2017-06-26T07:24:30.776Z,80.60
2017-06-26T07:26:59.077Z,79.60
2017-06-26T07:29:27.346Z,79.10
2017-06-26T07:31:55.660Z,79.10
2017-06-26T07:34:23.969Z,78.00
2017-06-26T07:36:52.286Z,77.40
2017-06-26T07:39:20.561Z,76.50
2017-06-26T07:41:48.832Z,76.60
2017-06-26T07:44:17.146Z,78.40
2017-06-26T07:46:45.412Z,78.70
2017-06-26T07:49:13.681Z,73.50
2017-06-26T07:51:41.972Z,69.10
2017-06-26T07:54:10.233Z,68.50
2017-06-26T07:56:38.537Z,65.10
2017-06-26T07:59:06.806Z,66.50
2017-06-26T08:01:35.109Z,63.30
2017-06-26T08:04:03.407Z,64.70
2017-06-26T08:06:31.709Z,63.40
2017-06-26T08:09:00.012Z,62.50
2017-06-26T08:11:28.287Z,61.50
2017-06-26T08:13:56.589Z,60.00
2017-06-26T08:16:24.853Z,60.50
2017-06-26T08:18:53.144Z,59.60
2017-06-26T08:21:21.414Z,59.60
2017-06-26T08:23:48.955Z,59.50
2017-06-26T08:26:17.229Z,58.60
2017-06-26T08:28:44.782Z,58.60
2017-06-26T08:31:13.051Z,59.00
2017-06-26T08:33:41.321Z,58.60
2017-06-26T08:36:09.641Z,59.10
2017-06-26T08:38:37.910Z,59.60
2017-06-26T08:41:06.170Z,57.80
2017-06-26T08:43:34.488Z,58.30
2017-06-26T08:46:02.753Z,58.10
2017-06-26T08:48:30.316Z,58.10
2017-06-26T08:50:58.576Z,56.70
2017-06-26T08:53:26.861Z,57.90
2017-06-26T08:55:55.161Z,57.30
2017-06-26T08:58:23.455Z,55.90
2017-06-26T09:00:51.761Z,55.50
2017-06-26T09:03:20.024Z,55.00
2017-06-26T09:05:48.284Z,56.70
2017-06-26T09:08:16.573Z,55.60
2017-06-26T09:10:44.864Z,55.40
2017-06-26T09:13:13.137Z,53.60
2017-06-26T09:15:41.426Z,55.00
2017-06-26T09:18:09.721Z,53.90
2017-06-26T09:20:37.997Z,54.20
2017-06-26T09:23:06.293Z,53.90
2017-06-26T09:25:34.556Z,53.60
2017-06-26T09:28:02.874Z,52.90
2017-06-26T09:30:31.142Z,53.40
2017-06-26T09:32:59.408Z,53.00
2017-06-26T09:35:27.713Z,53.90
2017-06-26T09:37:56.017Z,53.10
2017-06-26T09:40:24.284Z,53.10
2017-06-26T09:42:52.598Z,54.90
2017-06-26T09:45:20.896Z,53.30
2017-06-26T09:47:49.170Z,54.80
2017-06-26T09:50:17.481Z,53.50
2017-06-26T09:52:45.736Z,53.70
2017-06-26T09:55:13.996Z,52.60
2017-06-26T09:57:42.289Z,51.10
2017-06-26T10:00:10.552Z,51.80
2017-06-26T10:02:38.863Z,51.20
2017-06-26T10:05:07.135Z,51.60
2017-06-26T10:07:35.409Z,50.70
2017-06-26T10:10:03.726Z,50.40
2017-06-26T10:12:32.045Z,48.50
2017-06-26T10:15:00.357Z,51.90
2017-06-26T10:17:27.874Z,51.90
2017-06-26T10:19:56.205Z,49.50
2017-06-26T10:22:24.501Z,48.80
2017-06-26T10:24:52.811Z,48.20
2017-06-26T10:27:20.357Z,48.20
2017-06-26T10:29:48.632Z,47.70
2017-06-26T10:32:17.004Z,48.80
2017-06-26T10:34:45.276Z,49.30
2017-06-26T10:37:13.577Z,49.10
2017-06-26T10:39:41.083Z,49.10
2017-06-26T10:42:09.397Z,48.30
2017-06-26T10:44:37.673Z,47.80
2017-06-26T10:47:05.953Z,46.60
2017-06-26T10:49:34.295Z,46.40
2017-06-26T10:52:02.565Z,50.10
2017-06-26T10:54:30.854Z,46.10
2017-06-26T10:56:59.173Z,46.70
2017-06-26T10:59:27.447Z,45.50
2017-06-26T11:01:55.760Z,48.20
2017-06-26T11:04:24.039Z,44.90
2017-06-26T11:06:52.345Z,47.80
2017-06-26T11:09:20.616Z,44.00
2017-06-26T11:11:48.921Z,43.80
2017-06-26T11:14:17.283Z,46.60
2017-06-26T11:16:46.506Z,44.30
2017-06-26T11:19:14.765Z,44.70
2017-06-26T11:21:43.104Z,44.60
2017-06-26T11:24:11.380Z,44.80
2017-06-26T11:26:39.657Z,43.40
2017-06-26T11:29:07.952Z,42.20
2017-06-26T11:31:36.219Z,43.30
2017-06-26T11:34:04.533Z,42.50
2017-06-26T11:36:32.830Z,42.80
2017-06-26T11:39:01.139Z,41.50
2017-06-26T11:41:29.414Z,41.00
2017-06-26T11:43:57.752Z,43.60
2017-06-26T11:46:26.030Z,44.80
2017-06-26T11:48:54.301Z,42.00
2017-06-26T11:51:24.545Z,42.70
2017-06-26T11:53:52.054Z,42.80
2017-06-26T11:56:20.379Z,40.70
2017-06-26T11:58:47.883Z,40.80
2017-06-26T12:01:16.161Z,39.10
2017-06-26T12:03:44.477Z,39.80
2017-06-26T12:06:12.753Z,41.10
2017-06-26T12:08:41.062Z,37.70
2017-06-26T12:11:09.140Z,37.60
2017-06-26T12:13:37.406Z,36.80
2017-06-26T12:16:05.710Z,38.40
2017-06-26T12:18:33.980Z,40.20
2017-06-26T12:21:02.500Z,37.10
2017-06-26T12:23:30.775Z,37.30
2017-06-26T12:25:59.059Z,37.80
2017-06-26T12:28:27.351Z,37.80
2017-06-26T12:30:55.785Z,37.80
2017-06-26T12:33:24.070Z,37.80
2017-06-26T12:35:52.341Z,40.00
2017-06-26T12:38:20.653Z,38.70
2017-06-26T12:40:48.934Z,37.60
2017-06-26T12:43:17.240Z,38.40
2017-06-26T12:45:45.502Z,39.90
2017-06-26T12:48:13.811Z,38.00
2017-06-26T12:50:42.138Z,35.60
2017-06-26T12:53:10.413Z,38.30
2017-06-26T12:55:38.682Z,39.10
2017-06-26T12:58:07.000Z,38.20
2017-06-26T13:00:35.265Z,37.30
2017-06-26T13:03:03.559Z,37.70
2017-06-26T13:05:31.845Z,37.20
2017-06-26T13:08:00.163Z,37.40
2017-06-26T13:10:28.453Z,40.20
2017-06-26T13:12:56.737Z,38.30
2017-06-26T13:15:25.049Z,36.80
2017-06-26T13:17:53.350Z,37.60
2017-06-26T13:20:21.662Z,35.90
2017-06-26T13:22:49.941Z,37.80
2017-06-26T13:25:18.204Z,35.90
2017-06-26T13:27:46.510Z,37.30
2017-06-26T13:30:14.822Z,38.70
2017-06-26T13:32:43.102Z,37.20
2017-06-26T13:35:11.409Z,35.60
2017-06-26T13:37:39.682Z,38.20
2017-06-26T13:40:07.999Z,38.60
2017-06-26T13:42:36.283Z,35.30
2017-06-26T13:45:04.568Z,36.60
2017-06-26T13:47:32.874Z,37.70
2017-06-26T13:50:00.375Z,37.70
2017-06-26T13:52:28.683Z,37.30
2017-06-26T13:54:56.947Z,37.10
2017-06-26T13:57:25.246Z,37.30
2017-06-26T13:59:53.522Z,36.50
2017-06-26T14:02:21.866Z,36.60
2017-06-26T14:04:49.364Z,36.60
2017-06-26T14:07:17.629Z,34.50
2017-06-26T14:09:45.932Z,34.70
2017-06-26T14:12:14.191Z,35.00
2017-06-26T14:14:42.504Z,36.40
2017-06-26T14:17:10.777Z,34.50
2017-06-26T14:19:39.059Z,36.50
2017-06-26T14:22:07.382Z,35.00
2017-06-26T14:24:35.704Z,36.90
2017-06-26T14:27:03.974Z,34.80
2017-06-26T14:29:32.239Z,35.80
2017-06-26T14:32:00.537Z,38.20
2017-06-26T14:34:28.832Z,37.20
2017-06-26T14:36:57.100Z,35.50
2017-06-26T14:39:25.411Z,36.20
2017-06-26T14:41:53.677Z,38.40
2017-06-26T14:44:21.945Z,36.00
2017-06-26T14:46:50.248Z,37.70
2017-06-26T14:49:18.551Z,37.80
2017-06-26T14:51:46.840Z,36.30
2017-06-26T14:54:15.125Z,35.10
2017-06-26T14:56:43.395Z,36.40
2017-06-26T14:59:11.698Z,37.90
2017-06-26T15:01:39.967Z,36.10
2017-06-26T15:04:08.257Z,34.40
2017-06-26T15:06:36.534Z,33.50
2017-06-26T15:09:04.829Z,34.40
2017-06-26T15:11:33.117Z,34.70
2017-06-26T15:14:01.448Z,33.40
2017-06-26T15:16:29.735Z,36.10
2017-06-26T15:18:58.008Z,34.00
2017-06-26T15:21:26.302Z,34.50
2017-06-26T15:23:54.600Z,34.90
2017-06-26T15:26:22.915Z,35.70
2017-06-26T15:28:51.176Z,35.70
2017-06-26T15:31:19.446Z,35.10
2017-06-26T15:33:47.744Z,34.40
2017-06-26T15:36:16.015Z,38.00
2017-06-26T15:38:44.320Z,34.30
2017-06-26T15:41:12.698Z,34.80
2017-06-26T15:43:41.001Z,34.00
2017-06-26T15:46:08.506Z,34.00
2017-06-26T15:48:36.802Z,33.20
2017-06-26T15:51:05.071Z,35.20
2017-06-26T15:53:33.377Z,36.00
2017-06-26T15:56:01.655Z,36.80
2017-06-26T15:58:29.960Z,35.00
2017-06-26T16:00:58.235Z,35.30
2017-06-26T16:03:26.503Z,35.80
2017-06-26T16:05:54.819Z,35.80
2017-06-26T16:08:23.115Z,34.40
2017-06-26T16:10:50.661Z,34.40
2017-06-26T16:13:18.927Z,34.80
2017-06-26T16:15:47.242Z,33.70
2017-06-26T16:18:15.507Z,33.90
2017-06-26T16:20:43.808Z,34.10
2017-06-26T16:23:12.077Z,35.60
2017-06-26T16:25:40.387Z,35.40
2017-06-26T16:28:08.650Z,34.20
2017-06-26T16:30:36.947Z,34.60
2017-06-26T16:33:05.219Z,34.00
2017-06-26T16:35:33.511Z,34.60
2017-06-26T16:38:01.780Z,35.00
2017-06-26T16:40:30.078Z,36.80
2017-06-26T16:42:58.340Z,35.30
2017-06-26T16:45:26.648Z,36.60
2017-06-26T16:47:54.941Z,38.40
2017-06-26T16:50:23.241Z,37.40
2017-06-26T16:52:51.506Z,36.10
2017-06-26T16:55:19.807Z,35.70
2017-06-26T16:57:48.070Z,35.40
2017-06-26T17:00:16.384Z,36.60
2017-06-26T17:02:44.656Z,39.40
2017-06-26T17:05:12.918Z,39.70
2017-06-26T17:07:41.217Z,36.90
2017-06-26T17:10:09.496Z,36.50
2017-06-26T17:12:39.094Z,38.10
2017-06-26T17:15:07.393Z,38.00
2017-06-26T17:17:35.662Z,37.30
2017-06-26T17:20:03.962Z,39.80
2017-06-26T17:22:32.265Z,37.60
2017-06-26T17:25:00.583Z,38.70
2017-06-26T17:27:28.854Z,38.30
2017-06-26T17:29:57.173Z,38.10
2017-06-26T17:32:25.437Z,38.60
2017-06-26T17:34:53.707Z,37.80
2017-06-26T17:37:21.997Z,38.00
2017-06-26T17:39:50.299Z,39.20
2017-06-26T17:42:18.569Z,39.40
2017-06-26T17:44:46.884Z,38.90
2017-06-26T17:47:15.146Z,41.20
2017-06-26T17:49:48.100Z,40.50
2017-06-26T17:52:16.440Z,38.00
2017-06-26T17:54:45.745Z,37.70
2017-06-26T17:57:14.037Z,38.10
2017-06-26T17:59:41.554Z,38.10
2017-06-26T18:02:09.875Z,38.10
2017-06-26T18:04:37.424Z,38.10
2017-06-26T18:07:05.703Z,38.80
2017-06-26T18:09:33.976Z,39.20
2017-06-26T18:12:02.285Z,40.00
2017-06-26T18:14:29.792Z,39.90
2017-06-26T18:16:58.088Z,39.40
2017-06-26T18:19:26.358Z,41.30
2017-06-26T18:21:54.672Z,40.40
2017-06-26T18:24:22.936Z,41.00
2017-06-26T18:26:51.227Z,40.20
2017-06-26T18:29:19.524Z,40.30
2017-06-26T18:31:47.844Z,39.10
2017-06-26T18:34:16.139Z,40.90
2017-06-26T18:36:44.456Z,40.40
2017-06-26T18:39:12.725Z,39.40
2017-06-26T18:41:41.020Z,39.60
2017-06-26T18:44:09.300Z,40.20
2017-06-26T18:46:37.601Z,40.60
2017-06-26T18:49:05.865Z,39.70
2017-06-26T18:51:34.152Z,40.40
2017-06-26T18:54:02.422Z,41.70
2017-06-26T18:56:30.718Z,43.10
2017-06-26T18:58:58.990Z,40.90
2017-06-26T19:01:27.308Z,41.10
2017-06-26T19:03:54.814Z,41.10
2017-06-26T19:06:23.125Z,42.70
2017-06-26T19:08:51.417Z,42.80
2017-06-26T19:11:19.682Z,43.20
2017-06-26T19:13:47.972Z,42.10
2017-06-26T19:16:16.261Z,44.40
2017-06-26T19:18:44.556Z,43.80
2017-06-26T19:21:12.816Z,44.80
2017-06-26T19:23:41.122Z,44.10
2017-06-26T19:26:09.430Z,45.00
2017-06-26T19:28:37.702Z,43.90
2017-06-26T19:31:07.040Z,46.70
2017-06-26T19:33:35.360Z,46.80
2017-06-26T19:36:04.602Z,47.40
2017-06-26T19:38:32.900Z,45.20
2017-06-26T19:41:01.173Z,44.70
2017-06-26T19:43:29.492Z,44.80
2017-06-26T19:45:57.769Z,46.30
2017-06-26T19:48:26.032Z,46.60
2017-06-26T19:50:54.375Z,45.90
2017-06-26T19:53:22.647Z,47.70
2017-06-26T19:55:50.975Z,47.60
2017-06-26T19:58:19.248Z,47.90
2017-06-26T20:00:48.489Z,48.30
2017-06-26T20:03:16.797Z,48.70
2017-06-26T20:05:45.066Z,49.20
2017-06-26T20:08:13.368Z,48.50
2017-06-26T20:10:41.699Z,50.10
2017-06-26T20:13:10.013Z,50.00
2017-06-26T20:15:38.280Z,50.20
2017-06-26T20:18:06.648Z,51.10
2017-06-26T20:20:34.916Z,49.50
2017-06-26T20:23:03.317Z,50.40
2017-06-26T20:25:31.577Z,50.40
2017-06-26T20:27:59.840Z,49.90
2017-06-26T20:30:28.141Z,49.80
2017-06-26T20:32:57.403Z,49.50
2017-06-26T20:35:25.021Z,49.50
2017-06-26T20:37:53.280Z,51.60
2017-06-26T20:40:21.578Z,51.70
2017-06-26T20:42:49.841Z,49.60
2017-06-26T20:45:18.136Z,50.30
2017-06-26T20:47:46.421Z,52.70
2017-06-26T20:50:14.728Z,51.80
2017-06-26T20:52:42.997Z,52.40
2017-06-26T20:55:11.309Z,52.20
2017-06-26T20:57:39.576Z,52.60
2017-06-26T21:00:07.845Z,52.30
2017-06-26T21:02:36.149Z,50.60
2017-06-26T21:05:04.452Z,52.30
2017-06-26T21:07:32.765Z,51.90
2017-06-26T21:10:01.029Z,51.90
2017-06-26T21:12:30.252Z,52.30
2017-06-26T21:14:58.516Z,53.20
2017-06-26T21:17:26.064Z,53.20
2017-06-26T21:19:54.339Z,53.50
2017-06-26T21:22:22.662Z,54.00
2017-06-26T21:24:50.930Z,53.50
2017-06-26T21:27:19.202Z,52.80
2017-06-26T21:29:47.501Z,53.40
2017-06-26T21:32:15.771Z,53.30
2017-06-26T21:34:44.084Z,52.90
2017-06-26T21:37:13.404Z,52.80
2017-06-26T21:39:40.897Z,52.80
2017-06-26T21:42:09.269Z,53.10
2017-06-26T21:44:36.793Z,53.00
2017-06-26T21:47:05.055Z,53.70
2017-06-26T21:49:33.346Z,53.50
2017-06-26T21:52:01.613Z,54.30
2017-06-26T21:54:29.946Z,54.70
2017-06-26T21:56:58.239Z,54.80
2017-06-26T21:59:26.500Z,54.40
2017-06-26T22:01:54.796Z,54.10
2017-06-26T22:04:23.060Z,54.20
2017-06-26T22:06:51.360Z,55.20
2017-06-26T22:09:19.629Z,54.00
2017-06-26T22:11:47.948Z,55.30
2017-06-26T22:14:16.256Z,54.10
2017-06-26T22:16:44.522Z,55.60
2017-06-26T22:19:12.042Z,55.60
2017-06-26T22:21:41.258Z,56.00
2017-06-26T22:24:09.558Z,55.40
2017-06-26T22:26:38.925Z,56.30
2017-06-26T22:29:07.214Z,54.80
2017-06-26T22:31:35.484Z,55.70
2017-06-26T22:34:03.795Z,55.90
2017-06-26T22:36:32.062Z,55.80
2017-06-26T22:39:00.326Z,56.20
2017-06-26T22:41:29.640Z,56.90
2017-06-26T22:43:57.910Z,57.50
2017-06-26T22:46:26.217Z,56.50
2017-06-26T22:48:54.498Z,57.50
2017-06-26T22:51:22.808Z,57.00
2017-06-26T22:53:50.309Z,57.00
2017-06-26T22:56:18.580Z,57.80
2017-06-26T22:58:47.081Z,57.80
2017-06-26T23:01:15.352Z,57.90
2017-06-26T23:03:43.640Z,58.80
2017-06-26T23:06:11.912Z,57.90
2017-06-26T23:08:40.220Z,57.70
2017-06-26T23:11:09.483Z,57.60
2017-06-26T23:13:37.761Z,57.70
2017-06-26T23:16:06.088Z,58.90
2017-06-26T23:18:34.387Z,58.50
2017-06-26T23:21:02.659Z,58.70
2017-06-26T23:23:30.965Z,58.80
2017-06-26T23:25:59.307Z,59.30
2017-06-26T23:28:27.595Z,58.50
2017-06-26T23:30:57.190Z,58.50
2017-06-26T23:33:25.488Z,58.80
2017-06-26T23:35:53.759Z,58.30
2017-06-26T23:38:22.024Z,58.50
2017-06-26T23:40:50.324Z,59.80
2017-06-26T23:43:18.585Z,57.80
2017-06-26T23:45:50.357Z,58.10
2017-06-26T23:48:18.618Z,59.10
2017-06-26T23:50:46.906Z,59.50
2017-06-26T23:53:15.183Z,59.90
2017-06-26T23:55:43.476Z,58.60
2017-06-26T23:58:12.737Z,58.80
